Auburn, GA

2:17 AM EDT on October 25, 2014 (GMT -0400)
Fairmont on the Park-Station Bobio | Change Station
CLOSE
Current Station
Personal Weather Station
Location: Dacula, GA
Elevation: 997 ft
Nearby Weather Stations

Elev 997 ft 34.00 °N, 83.89 °W | Updated 10 seconds ago

Clear
Clear
42.7 °F
Feels Like 43 °F
N
0.0
Wind Variable Wind from North
Gusts 0.0 mph

Today
High -- | Low -- °F
--% Chance of Precip.
Yesterday
High -- | Low -- °F
Precip. -- in
7:48 AM 6:49 PM
New Moon, 2% visible
Pressure 30.04 in
Visibility 10.0 miles
Clouds Clear
Windchill 43 °F
Dew Point 42 °F
Humidity 97%
Rainfall 0.00 in
Snow Depth Not available.
UV 0.0 out of 12
Pollen 2.30 out of 12
PM2.5 Moderate
Flu Activity Sporadic
METAR KWDR 250555Z AUTO 35005KT 10SM CLR 12/09 A3004 RMK AO2 T01160085 10167 20105

More Conditions Fewer Conditions

Pressure 30.04 in
Visibility 10.0 miles
Clouds Clear
Windchill 43 °F
Dew Point 42 °F
Humidity 97%
Rainfall 0.00 in
Snow Depth Not available.
UV 0.0 out of 12
Pollen 2.30 out of 12
PM2.5 Moderate
Flu Activity Sporadic
METAR KWDR 250555Z AUTO 35005KT 10SM CLR 12/09 A3004 RMK AO2 T01160085 10167 20105

More Conditions Fewer Conditions

10-Day Weather Forecast

Almanac

Astronomy

Oct. 25, 2014 Rise Set
Actual Time 7:48 AM EDT 6:49 PM EDT
Civil Twilight 7:23 AM EDT 7:15 PM EDT
Nautical Twilight 6:53 AM EDT 7:44 PM EDT
Astronomical Twilight 6:24 AM EDT 8:13 PM EDT
Moon 9:23 AM EDT 8:15 PM EDT
Length of Visible Light 11h 51m
Length of Day
11h 00m
Tomorrow will be 1m 55s shorter.
New Moon, 2% of the Moon is Illuminated
Today
New Moon
Oct 30
First Quarter
Nov 6
Full
Nov 14
Last Quarter
Nov 22
New

Today's Extremes

State Highs State Lows

Community

WunderPhotos

Upload Photos

1,764,785 photos uploaded!

Nearby

Air Quality

  Air Quality AQ Index Pollutant
Yesterday Good
PM10
Yesterday Good
OZONE
Current Moderate
PM2.5
Saturday Moderate
PM2.5
Saturday Good
OZONE

Snow Depth

Station Depth Elevation
No new snow has been reported.

Earthquake Activity

City Distance Mag. Time & Date
No recent earthquake activity has been reported nearby.
Minimum magnitude displayed is 2.5.

Coastal Water Temperatures

Place Temperature
No Stations Reporting

Nearby Weather Stations